Jesup, Georgia
Current Conditions -  °F | °C
As of 1:55 PM on Friday 24 Oct 2014 (Local Time) from KJES Reporting Station
Clear Clear  
Wind Chill: 75°   Ceiling: Unl
Heat Index: 75°   Visibility: 10mi
Dew Point: 46°   Wind: 6mph
Humidity: 36%   Direction: 120°ESE
Pressure: 30.02"   Gusts: NA
Location:  31.61°N, 81.88°W
Report Text: KJES 241755Z AUTO 12005KT 10SM CLR 24/08 A3002 RMK AO2
Loading
Personal Weather Stations






























Interactive Weather Map
Tropical Storm Tracking
New forecast layout! Learn more

10-Day Weather Forecast

Advertisements
Track Severe Weather on mobile